Weather at Cuyahoga County Airport

Public forecast

Using degrees Fahrenheit for public forecast. Weather courtesy of forecast.io.

Current aviation weather report (METAR) for Cuyahoga County Airport

Report is more than 6 hours old.

2022/11/14 14:45 (retrieved 2 years ago)

KCGF 141445Z 00000KT 10SM OVC035 02/M03 A3038

Closest aviation forecast (TAF) to Cuyahoga County Airport

Forecast is more than 12 hours old.

Closest forecast is Cleveland Hopkins International Airport, 18.8 nm (34.7 km) WSW.

2023/02/22 20:15 Ammendment (retrieved 1 year ago)

TAF AMD KCLE 222012Z 2220/2324 07008KT 2SM -RA BR OVC006 FM230100 14008KT P6SM VCSH OVC003 WS020/21050KT TEMPO 2301/2304 1SM TSRA SCT008 OVC015CB FM230700 29012KT P6SM BKN003 FM231700 20010KT P6SM BKN008 FM231900 23015G25KT P6SM BKN025